Time,TemperatureF,DewpointF,PressureIn,WindDirection,WindDirectionDegrees,WindSpeedMPH,WindSpeedGustMPH,Humidity,HourlyPrecipIn,Conditions,Clouds,dailyrainin,SoftwareType,DateUTC
2013-03-10 00:10:00,51.0,-99.9,-100.00,SSE,147,3.0,8.0,-999,-99.99,,,-99.99,,2013-03-10 07:10:00,
2013-03-10 00:52:00,51.0,-99.9,-100.00,SSE,147,3.0,8.0,-999,-99.99,,,-99.99,,2013-03-10 07:52:00,
2013-03-10 01:02:00,51.0,-99.9,-100.00,SSE,147,3.0,8.0,-999,-99.99,,,-99.99,,2013-03-10 08:02:00,
2013-03-10 01:21:00,51.0,-99.9,-100.00,NE,36,4.0,8.0,-999,-99.99,,,-99.99,,2013-03-10 08:21:00,
2013-03-10 01:30:00,48.0,-99.9,-100.00,SSE,165,2.0,4.0,-999,-99.99,,,-99.99,,2013-03-10 08:30:00,
2013-03-10 01:32:00,51.0,-99.9,-100.00,NE,36,4.0,8.0,-999,-99.99,,,-99.99,,2013-03-10 08:32:00,
2013-03-10 01:42:00,51.0,-99.9,-100.00,North,9,6.0,8.0,-999,-99.99,,,-99.99,,2013-03-10 08:42:00,
2013-03-10 01:52:00,51.0,-99.9,-100.00,North,9,6.0,8.0,-999,-99.99,,,-99.99,,2013-03-10 08:52:00,
2013-03-10 02:11:00,49.0,-99.9,-100.00,South,187,3.0,3.0,-999,-99.99,,,-99.99,,2013-03-10 09:11:00,
2013-03-10 02:21:00,48.0,-99.9,-100.00,SSE,165,2.0,4.0,-999,-99.99,,,-99.99,,2013-03-10 09:21:00,
2013-03-10 02:30:00,48.0,-99.9,-100.00,SSW,194,2.0,4.0,-999,-99.99,,,-99.99,,2013-03-10 09:30:00,
2013-03-10 03:22:00,48.0,-99.9,-100.00,SSW,194,2.0,4.0,-999,-99.99,,,-99.99,,2013-03-10 10:22:00,
2013-03-10 04:00:00,48.0,-99.9,-100.00,South,188,8.0,11.0,-999,-99.99,,,-99.99,,2013-03-10 11:00:00,
2013-03-10 04:52:00,48.0,-99.9,-100.00,South,188,8.0,11.0,-999,-99.99,,,-99.99,,2013-03-10 11:52:00,
2013-03-10 05:11:00,49.0,-99.9,-100.00,ENE,61,4.0,11.0,-999,-99.99,,,-99.99,,2013-03-10 12:11:00,
2013-03-10 05:21:00,48.0,-99.9,-100.00,South,180,8.0,8.0,-999,-99.99,,,-99.99,,2013-03-10 12:21:00,
2013-03-10 05:32:00,48.0,-99.9,-100.00,South,180,8.0,8.0,-999,-99.99,,,-99.99,,2013-03-10 12:32:00,
2013-03-10 05:42:00,48.0,-99.9,-100.00,South,187,5.0,5.0,-999,-99.99,,,-99.99,,2013-03-10 12:42:00,
2013-03-10 06:21:00,47.0,-99.9,-100.00,North,356,5.0,6.0,-999,-99.99,,,-99.99,,2013-03-10 13:21:00,
2013-03-10 06:32:00,47.0,-99.9,-100.00,North,356,5.0,6.0,-999,-99.99,,,-99.99,,2013-03-10 13:32:00,
2013-03-10 07:22:00,50.0,-99.9,-100.00,ENE,67,9.0,11.0,-999,-99.99,,,-99.99,,2013-03-10 14:22:00,
2013-03-10 07:32:00,50.0,-99.9,-100.00,ENE,67,9.0,11.0,-999,-99.99,,,-99.99,,2013-03-10 14:32:00,
2013-03-10 07:40:00,51.0,-99.9,-100.00,East,86,6.0,9.0,-999,-99.99,,,-99.99,,2013-03-10 14:40:00,
2013-03-10 07:42:00,51.0,-99.9,-100.00,ENE,67,7.0,14.0,-999,-99.99,,,-99.99,,2013-03-10 14:42:00,
2013-03-10 07:52:00,51.0,-99.9,-100.00,East,100,7.0,12.0,-999,-99.99,,,-99.99,,2013-03-10 14:52:00,
2013-03-10 08:00:00,53.0,-99.9,-100.00,ENE,78,1.0,8.0,-999,-99.99,,,-99.99,,2013-03-10 15:00:00,
2013-03-10 08:01:00,51.0,-99.9,-100.00,East,100,7.0,12.0,-999,-99.99,,,-99.99,,2013-03-10 15:01:00,
2013-03-10 08:11:00,51.0,-99.9,-100.00,East,100,7.0,12.0,-999,-99.99,,,-99.99,,2013-03-10 15:11:00,
2013-03-10 08:20:00,56.0,-99.9,-100.00,SSE,162,4.0,14.0,-999,-99.99,,,-99.99,,2013-03-10 15:20:00,
2013-03-10 08:21:00,51.0,-99.9,-100.00,East,86,6.0,9.0,-999,-99.99,,,-99.99,,2013-03-10 15:21:00,
2013-03-10 08:32:00,51.0,-99.9,-100.00,East,86,6.0,9.0,-999,-99.99,,,-99.99,,2013-03-10 15:32:00,
2013-03-10 08:52:00,53.0,-99.9,-100.00,ENE,78,1.0,8.0,-999,-99.99,,,-99.99,,2013-03-10 15:52:00,
2013-03-10 09:12:00,56.0,-99.9,-100.00,SSE,162,4.0,14.0,-999,-99.99,,,-99.99,,2013-03-10 16:12:00,
2013-03-10 11:40:00,65.0,-99.9,-100.00,ENE,74,16.0,26.0,-999,-99.99,,,-99.99,,2013-03-10 18:40:00,
2013-03-10 11:53:00,64.0,-99.9,-100.00,NNE,27,14.0,22.0,-999,-99.99,,,-99.99,,2013-03-10 18:53:00,
2013-03-10 12:02:00,65.0,-99.9,-100.00,NE,46,12.0,22.0,-999,-99.99,,,-99.99,,2013-03-10 19:02:00,
2013-03-10 12:12:00,65.0,-99.9,-100.00,NE,46,12.0,22.0,-999,-99.99,,,-99.99,,2013-03-10 19:12:00,
2013-03-10 12:22:00,65.0,-99.9,-100.00,ENE,74,16.0,26.0,-999,-99.99,,,-99.99,,2013-03-10 19:22:00,
2013-03-10 12:32:00,65.0,-99.9,-100.00,ENE,74,16.0,26.0,-999,-99.99,,,-99.99,,2013-03-10 19:32:00,
2013-03-10 13:02:00,65.0,-99.9,-100.00,NNE,27,12.0,20.0,-999,-99.99,,,-99.99,,2013-03-10 20:02:00,
2013-03-10 13:13:00,65.0,-99.9,-100.00,NNE,27,12.0,20.0,-999,-99.99,,,-99.99,,2013-03-10 20:13:00,
2013-03-10 13:22:00,65.0,-99.9,-100.00,NNE,27,12.0,20.0,-999,-99.99,,,-99.99,,2013-03-10 20:22:00,
2013-03-10 13:30:00,68.0,-99.9,-100.00,ENE,72,18.0,20.0,-999,-99.99,,,-99.99,,2013-03-10 20:30:00,
2013-03-10 13:33:00,67.0,-99.9,-100.00,NE,47,11.0,23.0,-999,-99.99,,,-99.99,,2013-03-10 20:33:00,
2013-03-10 13:43:00,67.0,-99.9,-100.00,NE,47,11.0,23.0,-999,-99.99,,,-99.99,,2013-03-10 20:43:00,
2013-03-10 13:53:00,68.0,-99.9,-100.00,SSW,199,2.0,22.0,-999,-99.99,,,-99.99,,2013-03-10 20:53:00,
2013-03-10 14:02:00,68.0,-99.9,-100.00,NE,49,9.0,17.0,-999,-99.99,,,-99.99,,2013-03-10 21:02:00,
2013-03-10 14:12:00,68.0,-99.9,-100.00,NE,49,9.0,17.0,-999,-99.99,,,-99.99,,2013-03-10 21:12:00,
2013-03-10 14:20:00,69.0,-99.9,-100.00,NE,44,13.0,20.0,-999,-99.99,,,-99.99,,2013-03-10 21:20:00,
2013-03-10 14:23:00,68.0,-99.9,-100.00,ENE,72,18.0,20.0,-999,-99.99,,,-99.99,,2013-03-10 21:23:00,
2013-03-10 14:50:00,70.0,-99.9,-100.00,ENE,72,7.0,21.0,-999,-99.99,,,-99.99,,2013-03-10 21:50:00,
2013-03-10 15:03:00,69.0,-99.9,-100.00,NE,44,13.0,20.0,-999,-99.99,,,-99.99,,2013-03-10 22:03:00,
2013-03-10 15:12:00,69.0,-99.9,-100.00,NE,44,13.0,20.0,-999,-99.99,,,-99.99,,2013-03-10 22:12:00,
2013-03-10 15:33:00,70.0,-99.9,-100.00,ENE,72,7.0,21.0,-999,-99.99,,,-99.99,,2013-03-10 22:33:00,
2013-03-10 15:43:00,70.0,-99.9,-100.00,ENE,72,7.0,21.0,-999,-99.99,,,-99.99,,2013-03-10 22:43:00,
2013-03-10 16:03:00,71.0,-99.9,-100.00,NE,49,6.0,14.0,-999,-99.99,,,-99.99,,2013-03-10 23:03:00,
2013-03-10 16:13:00,71.0,-99.9,-100.00,NE,49,6.0,14.0,-999,-99.99,,,-99.99,,2013-03-10 23:13:00,
2013-03-10 16:23:00,71.0,-99.9,-100.00,ENE,58,11.0,19.0,-999,-99.99,,,-99.99,,2013-03-10 23:23:00,
2013-03-10 16:33:00,71.0,-99.9,-100.00,ENE,58,11.0,19.0,-999,-99.99,,,-99.99,,2013-03-10 23:33:00,
2013-03-10 18:33:00,70.0,-99.9,-100.00,ESE,117,3.0,10.0,-999,-99.99,,,-99.99,,2013-03-11 01:33:00,
2013-03-10 18:43:00,70.0,-99.9,-100.00,ESE,117,3.0,10.0,-999,-99.99,,,-99.99,,2013-03-11 01:43:00,
2013-03-10 18:54:00,70.0,-99.9,-100.00,SW,225,3.0,11.0,-999,-99.99,,,-99.99,,2013-03-11 01:54:00,
2013-03-10 19:03:00,70.0,-99.9,-100.00,SW,225,3.0,11.0,-999,-99.99,,,-99.99,,2013-03-11 02:03:00,
2013-03-10 19:23:00,69.0,-99.9,-100.00,NE,36,6.0,11.0,-999,-99.99,,,-99.99,,2013-03-11 02:23:00,
2013-03-10 19:33:00,67.0,-99.9,-100.00,East,87,5.0,9.0,-999,-99.99,,,-99.99,,2013-03-11 02:33:00,
2013-03-10 19:42:00,67.0,-99.9,-100.00,East,87,5.0,9.0,-999,-99.99,,,-99.99,,2013-03-11 02:42:00,
2013-03-10 19:53:00,66.0,-99.9,-100.00,South,184,5.0,11.0,-999,-99.99,,,-99.99,,2013-03-11 02:53:00,
2013-03-10 20:02:00,66.0,-99.9,-100.00,South,184,5.0,11.0,-999,-99.99,,,-99.99,,2013-03-11 03:02:00,
2013-03-10 20:10:00,62.0,-99.9,-100.00,East,84,4.0,10.0,-999,-99.99,,,-99.99,,2013-03-11 03:10:00,
2013-03-10 20:53:00,62.0,-99.9,-100.00,East,84,4.0,10.0,-999,-99.99,,,-99.99,,2013-03-11 03:53:00,
2013-03-10 21:03:00,62.0,-99.9,-100.00,East,84,4.0,10.0,-999,-99.99,,,-99.99,,2013-03-11 04:03:00,
2013-03-10 21:23:00,62.0,-99.9,-100.00,SSW,199,4.0,12.0,-999,-99.99,,,-99.99,,2013-03-11 04:23:00,
2013-03-10 21:33:00,62.0,-99.9,-100.00,SSW,199,4.0,12.0,-999,-99.99,,,-99.99,,2013-03-11 04:33:00,
2013-03-10 22:50:00,55.0,-99.9,-100.00,South,191,4.0,5.0,-999,-99.99,,,-99.99,,2013-03-11 05:50:00,
2013-03-10 23:22:00,55.0,-99.9,-100.00,ENE,72,6.0,6.0,-999,-99.99,,,-99.99,,2013-03-11 06:22:00,
2013-03-10 23:33:00,55.0,-99.9,-100.00,South,191,4.0,5.0,-999,-99.99,,,-99.99,,2013-03-11 06:33:00,
2013-03-10 23:42:00,55.0,-99.9,-100.00,South,191,4.0,5.0,-999,-99.99,,,-99.99,,2013-03-11 06:42:00,